sensor_id;sensor_type;location;lat;lon;timestamp;pressure;altitude;pressure_sealevel;temperature
69420;BMP280;71621;52.030;113.516;2023-08-01T00:01:42;92951.53;;;28.50
69420;BMP280;71621;52.030;113.516;2023-08-01T00:04:45;92952.13;;;28.95
69420;BMP280;71621;52.030;113.516;2023-08-01T00:07:49;92950.94;;;29.34
69420;BMP280;71621;52.030;113.516;2023-08-01T00:10:52;92952.72;;;29.37
69420;BMP280;71621;52.030;113.516;2023-08-01T00:13:56;92940.78;;;29.62
69420;BMP280;71621;52.030;113.516;2023-08-01T00:16:59;92942.19;;;30.12
69420;BMP280;71621;52.030;113.516;2023-08-01T00:20:03;92941.94;;;30.06
69420;BMP280;71621;52.030;113.516;2023-08-01T00:23:07;92937.75;;;29.56
69420;BMP280;71621;52.030;113.516;2023-08-01T00:26:10;92937.31;;;29.00
69420;BMP280;71621;52.030;113.516;2023-08-01T00:29:14;92935.34;;;29.09
69420;BMP280;71621;52.030;113.516;2023-08-01T00:32:17;92921.69;;;29.18
69420;BMP280;71621;52.030;113.516;2023-08-01T00:35:21;92912.00;;;28.76
69420;BMP280;71621;52.030;113.516;2023-08-01T00:38:24;92907.84;;;28.67
69420;BMP280;71621;52.030;113.516;2023-08-01T00:41:28;92908.75;;;28.84
69420;BMP280;71621;52.030;113.516;2023-08-01T00:44:31;92904.56;;;28.96
69420;BMP280;71621;52.030;113.516;2023-08-01T00:47:35;92909.66;;;28.70
69420;BMP280;71621;52.030;113.516;2023-08-01T00:50:39;92911.00;;;28.71
69420;BMP280;71621;52.030;113.516;2023-08-01T00:53:44;92918.19;;;29.09
69420;BMP280;71621;52.030;113.516;2023-08-01T00:56:49;92907.06;;;28.89
69420;BMP280;71621;52.030;113.516;2023-08-01T00:59:56;92906.91;;;29.02
69420;BMP280;71621;52.030;113.516;2023-08-01T01:02:59;92902.19;;;29.22
69420;BMP280;71621;52.030;113.516;2023-08-01T01:06:14;92899.69;;;29.28
69420;BMP280;71621;52.030;113.516;2023-08-01T01:09:29;92894.03;;;29.30
69420;BMP280;71621;52.030;113.516;2023-08-01T01:12:34;92890.94;;;28.94
69420;BMP280;71621;52.030;113.516;2023-08-01T01:15:38;92883.63;;;28.48
69420;BMP280;71621;52.030;113.516;2023-08-01T01:18:41;92890.38;;;28.28
69420;BMP280;71621;52.030;113.516;2023-08-01T01:22:05;92888.78;;;28.20
69420;BMP280;71621;52.030;113.516;2023-08-01T01:25:28;92891.09;;;28.05
69420;BMP280;71621;52.030;113.516;2023-08-01T01:28:33;92889.16;;;28.14
69420;BMP280;71621;52.030;113.516;2023-08-01T01:31:37;92889.34;;;27.99
69420;BMP280;71621;52.030;113.516;2023-08-01T01:34:42;92895.50;;;27.66
69420;BMP280;71621;52.030;113.516;2023-08-01T01:37:45;92889.59;;;27.62
69420;BMP280;71621;52.030;113.516;2023-08-01T01:40:49;92885.59;;;27.71
69420;BMP280;71621;52.030;113.516;2023-08-01T01:43:52;92892.00;;;27.68
69420;BMP280;71621;52.030;113.516;2023-08-01T01:46:56;92888.72;;;27.65
69420;BMP280;71621;52.030;113.516;2023-08-01T01:50:00;92888.06;;;27.65
69420;BMP280;71621;52.030;113.516;2023-08-01T01:53:04;92886.44;;;27.80
69420;BMP280;71621;52.030;113.516;2023-08-01T01:56:07;92879.78;;;27.88
69420;BMP280;71621;52.030;113.516;2023-08-01T01:59:12;92875.56;;;27.78
69420;BMP280;71621;52.030;113.516;2023-08-01T02:02:15;92882.41;;;27.90
69420;BMP280;71621;52.030;113.516;2023-08-01T02:05:19;92882.59;;;28.09
69420;BMP280;71621;52.030;113.516;2023-08-01T02:08:22;92877.50;;;28.14
69420;BMP280;71621;52.030;113.516;2023-08-01T02:11:26;92876.56;;;28.07
69420;BMP280;71621;52.030;113.516;2023-08-01T02:14:30;92878.91;;;28.02
69420;BMP280;71621;52.030;113.516;2023-08-01T02:17:34;92878.13;;;28.04
69420;BMP280;71621;52.030;113.516;2023-08-01T02:20:37;92875.16;;;28.18
69420;BMP280;71621;52.030;113.516;2023-08-01T02:23:42;92867.22;;;28.35
69420;BMP280;71621;52.030;113.516;2023-08-01T02:26:45;92868.13;;;28.42
69420;BMP280;71621;52.030;113.516;2023-08-01T02:29:49;92859.31;;;28.19
69420;BMP280;71621;52.030;113.516;2023-08-01T02:32:53;92863.06;;;28.03
69420;BMP280;71621;52.030;113.516;2023-08-01T02:35:57;92860.97;;;28.03
69420;BMP280;71621;52.030;113.516;2023-08-01T02:39:01;92860.25;;;28.15
69420;BMP280;71621;52.030;113.516;2023-08-01T02:42:04;92855.66;;;28.12
69420;BMP280;71621;52.030;113.516;2023-08-01T02:45:08;92855.78;;;28.10
69420;BMP280;71621;52.030;113.516;2023-08-01T02:48:12;92847.81;;;28.06
69420;BMP280;71621;52.030;113.516;2023-08-01T02:51:15;92848.44;;;28.06
69420;BMP280;71621;52.030;113.516;2023-08-01T02:54:19;92846.88;;;27.98
69420;BMP280;71621;52.030;113.516;2023-08-01T02:57:23;92839.78;;;28.02
69420;BMP280;71621;52.030;113.516;2023-08-01T03:00:27;92842.69;;;28.10
69420;BMP280;71621;52.030;113.516;2023-08-01T03:03:30;92843.25;;;28.23
69420;BMP280;71621;52.030;113.516;2023-08-01T03:06:34;92838.81;;;28.28
69420;BMP280;71621;52.030;113.516;2023-08-01T03:09:38;92843.66;;;28.38
69420;BMP280;71621;52.030;113.516;2023-08-01T03:12:41;92836.06;;;28.50
69420;BMP280;71621;52.030;113.516;2023-08-01T03:15:46;92840.25;;;28.59
69420;BMP280;71621;52.030;113.516;2023-08-01T03:18:50;92842.09;;;28.63
69420;BMP280;71621;52.030;113.516;2023-08-01T03:21:53;92850.84;;;28.55
69420;BMP280;71621;52.030;113.516;2023-08-01T03:24:58;92843.16;;;28.57
69420;BMP280;71621;52.030;113.516;2023-08-01T03:28:01;92839.47;;;28.39
69420;BMP280;71621;52.030;113.516;2023-08-01T03:31:05;92827.81;;;28.39
69420;BMP280;71621;52.030;113.516;2023-08-01T03:34:08;92837.38;;;28.51
69420;BMP280;71621;52.030;113.516;2023-08-01T03:37:12;92837.38;;;28.61
69420;BMP280;71621;52.030;113.516;2023-08-01T03:40:16;92824.56;;;28.68
69420;BMP280;71621;52.030;113.516;2023-08-01T03:43:20;92814.34;;;28.77
69420;BMP280;71621;52.030;113.516;2023-08-01T03:46:26;92814.44;;;28.86
69420;BMP280;71621;52.030;113.516;2023-08-01T03:49:30;92812.47;;;28.95
69420;BMP280;71621;52.030;113.516;2023-08-01T03:52:33;92807.19;;;29.12
69420;BMP280;71621;52.030;113.516;2023-08-01T03:55:37;92796.28;;;29.21
69420;BMP280;71621;52.030;113.516;2023-08-01T03:58:41;92796.00;;;29.25
69420;BMP280;71621;52.030;113.516;2023-08-01T04:01:45;92795.34;;;29.24
69420;BMP280;71621;52.030;113.516;2023-08-01T04:04:49;92797.69;;;29.30
69420;BMP280;71621;52.030;113.516;2023-08-01T04:07:53;92794.88;;;29.41
69420;BMP280;71621;52.030;113.516;2023-08-01T04:10:59;92786.50;;;29.43
69420;BMP280;71621;52.030;113.516;2023-08-01T04:14:03;92784.38;;;29.44
69420;BMP280;71621;52.030;113.516;2023-08-01T04:17:06;92787.22;;;29.52
69420;BMP280;71621;52.030;113.516;2023-08-01T04:20:10;92782.97;;;29.64
69420;BMP280;71621;52.030;113.516;2023-08-01T04:23:14;92768.75;;;29.70
69420;BMP280;71621;52.030;113.516;2023-08-01T04:26:18;92768.50;;;29.74
69420;BMP280;71621;52.030;113.516;2023-08-01T04:29:21;92768.59;;;29.82
69420;BMP280;71621;52.030;113.516;2023-08-01T04:32:25;92769.44;;;29.90
69420;BMP280;71621;52.030;113.516;2023-08-01T04:35:28;92764.16;;;29.96
69420;BMP280;71621;52.030;113.516;2023-08-01T04:38:32;92760.19;;;30.04
69420;BMP280;71621;52.030;113.516;2023-08-01T04:41:35;92763.63;;;30.13
69420;BMP280;71621;52.030;113.516;2023-08-01T04:44:39;92765.94;;;30.19
69420;BMP280;71621;52.030;113.516;2023-08-01T04:47:43;92763.06;;;30.21
69420;BMP280;71621;52.030;113.516;2023-08-01T04:50:46;92755.31;;;30.23
69420;BMP280;71621;52.030;113.516;2023-08-01T04:53:50;92744.78;;;30.26
69420;BMP280;71621;52.030;113.516;2023-08-01T04:56:53;92739.75;;;30.28
69420;BMP280;71621;52.030;113.516;2023-08-01T04:59:57;92748.38;;;30.33
69420;BMP280;71621;52.030;113.516;2023-08-01T05:03:02;92740.81;;;30.42
69420;BMP280;71621;52.030;113.516;2023-08-01T05:06:06;92737.91;;;30.44
69420;BMP280;71621;52.030;113.516;2023-08-01T05:09:09;92742.13;;;30.43
69420;BMP280;71621;52.030;113.516;2023-08-01T05:12:13;92731.88;;;30.42
69420;BMP280;71621;52.030;113.516;2023-08-01T05:15:17;92735.16;;;30.44
69420;BMP280;71621;52.030;113.516;2023-08-01T05:18:20;92723.00;;;30.50
69420;BMP280;71621;52.030;113.516;2023-08-01T05:21:24;92722.25;;;30.60
69420;BMP280;71621;52.030;113.516;2023-08-01T05:24:28;92720.03;;;30.71
69420;BMP280;71621;52.030;113.516;2023-08-01T05:27:31;92718.78;;;30.78
69420;BMP280;71621;52.030;113.516;2023-08-01T05:30:37;92710.16;;;30.74
69420;BMP280;71621;52.030;113.516;2023-08-01T05:33:40;92711.16;;;30.79
69420;BMP280;71621;52.030;113.516;2023-08-01T05:36:44;92706.31;;;30.88
69420;BMP280;71621;52.030;113.516;2023-08-01T05:39:48;92703.09;;;30.94
69420;BMP280;71621;52.030;113.516;2023-08-01T05:42:51;92701.78;;;30.93
69420;BMP280;71621;52.030;113.516;2023-08-01T05:45:55;92701.00;;;31.03
69420;BMP280;71621;52.030;113.516;2023-08-01T05:48:58;92703.16;;;31.20
69420;BMP280;71621;52.030;113.516;2023-08-01T05:52:02;92695.38;;;31.31
69420;BMP280;71621;52.030;113.516;2023-08-01T05:55:06;92698.00;;;31.42
69420;BMP280;71621;52.030;113.516;2023-08-01T05:58:10;92701.25;;;31.53
69420;BMP280;71621;52.030;113.516;2023-08-01T06:01:13;92691.84;;;31.50
69420;BMP280;71621;52.030;113.516;2023-08-01T06:04:17;92686.16;;;31.60
69420;BMP280;71621;52.030;113.516;2023-08-01T06:07:21;92683.06;;;31.64
69420;BMP280;71621;52.030;113.516;2023-08-01T06:10:26;92685.81;;;31.56
69420;BMP280;71621;52.030;113.516;2023-08-01T06:13:29;92686.66;;;31.54
69420;BMP280;71621;52.030;113.516;2023-08-01T06:16:33;92681.28;;;31.52
69420;BMP280;71621;52.030;113.516;2023-08-01T06:19:37;92684.22;;;31.50
69420;BMP280;71621;52.030;113.516;2023-08-01T06:22:41;92685.16;;;31.55
69420;BMP280;71621;52.030;113.516;2023-08-01T06:25:45;92679.81;;;31.53
69420;BMP280;71621;52.030;113.516;2023-08-01T06:28:49;92682.28;;;31.49
69420;BMP280;71621;52.030;113.516;2023-08-01T06:31:54;92677.53;;;31.56
69420;BMP280;71621;52.030;113.516;2023-08-01T06:34:57;92666.66;;;31.54
69420;BMP280;71621;52.030;113.516;2023-08-01T06:38:01;92674.63;;;31.49
69420;BMP280;71621;52.030;113.516;2023-08-01T06:41:05;92675.59;;;31.46
69420;BMP280;71621;52.030;113.516;2023-08-01T06:44:09;92667.31;;;31.46
69420;BMP280;71621;52.030;113.516;2023-08-01T06:47:12;92659.53;;;31.48
69420;BMP280;71621;52.030;113.516;2023-08-01T06:50:16;92652.50;;;31.49
69420;BMP280;71621;52.030;113.516;2023-08-01T06:53:19;92656.59;;;31.59
69420;BMP280;71621;52.030;113.516;2023-08-01T06:56:24;92657.38;;;31.66
69420;BMP280;71621;52.030;113.516;2023-08-01T06:59:27;92661.63;;;31.73
69420;BMP280;71621;52.030;113.516;2023-08-01T07:02:31;92658.22;;;31.82
69420;BMP280;71621;52.030;113.516;2023-08-01T07:05:35;92651.38;;;31.81
69420;BMP280;71621;52.030;113.516;2023-08-01T07:08:39;92653.50;;;31.80
69420;BMP280;71621;52.030;113.516;2023-08-01T07:11:42;92650.56;;;31.82
69420;BMP280;71621;52.030;113.516;2023-08-01T07:14:46;92650.72;;;31.80
69420;BMP280;71621;52.030;113.516;2023-08-01T07:17:49;92644.41;;;31.82
69420;BMP280;71621;52.030;113.516;2023-08-01T07:21:01;92650.56;;;31.82
69420;BMP280;71621;52.030;113.516;2023-08-01T07:24:04;92646.81;;;31.86
69420;BMP280;71621;52.030;113.516;2023-08-01T07:27:08;92648.44;;;31.91
69420;BMP280;71621;52.030;113.516;2023-08-01T07:30:12;92649.56;;;31.86
69420;BMP280;71621;52.030;113.516;2023-08-01T07:33:16;92643.25;;;31.79
69420;BMP280;71621;52.030;113.516;2023-08-01T07:36:19;92653.34;;;31.73
69420;BMP280;71621;52.030;113.516;2023-08-01T07:39:24;92643.91;;;31.70
69420;BMP280;71621;52.030;113.516;2023-08-01T07:42:40;92647.81;;;31.73
69420;BMP280;71621;52.030;113.516;2023-08-01T07:45:44;92643.44;;;31.59
69420;BMP280;71621;52.030;113.516;2023-08-01T07:48:49;92643.72;;;31.55
69420;BMP280;71621;52.030;113.516;2023-08-01T07:51:54;92637.91;;;31.59
69420;BMP280;71621;52.030;113.516;2023-08-01T07:54:58;92642.78;;;31.59
69420;BMP280;71621;52.030;113.516;2023-08-01T07:58:02;92633.50;;;31.62
69420;BMP280;71621;52.030;113.516;2023-08-01T08:01:06;92641.16;;;31.70
69420;BMP280;71621;52.030;113.516;2023-08-01T08:04:09;92633.50;;;31.80
69420;BMP280;71621;52.030;113.516;2023-08-01T08:07:14;92627.16;;;31.72
69420;BMP280;71621;52.030;113.516;2023-08-01T08:10:17;92628.78;;;31.61
69420;BMP280;71621;52.030;113.516;2023-08-01T08:13:21;92636.94;;;31.54
69420;BMP280;71621;52.030;113.516;2023-08-01T08:16:25;92628.63;;;31.54
69420;BMP280;71621;52.030;113.516;2023-08-01T08:19:29;92617.91;;;31.50
69420;BMP280;71621;52.030;113.516;2023-08-01T08:22:32;92625.41;;;31.52
69420;BMP280;71621;52.030;113.516;2023-08-01T08:25:36;92620.50;;;31.52
69420;BMP280;71621;52.030;113.516;2023-08-01T08:28:39;92620.03;;;31.50
69420;BMP280;71621;52.030;113.516;2023-08-01T08:31:45;92618.25;;;31.46
69420;BMP280;71621;52.030;113.516;2023-08-01T08:34:48;92612.22;;;31.44
69420;BMP280;71621;52.030;113.516;2023-08-01T08:37:51;92620.34;;;31.46
69420;BMP280;71621;52.030;113.516;2023-08-01T08:41:13;92618.56;;;31.59
69420;BMP280;71621;52.030;113.516;2023-08-01T08:44:18;92609.78;;;31.65
69420;BMP280;71621;52.030;113.516;2023-08-01T08:47:28;92609.44;;;31.69
69420;BMP280;71621;52.030;113.516;2023-08-01T08:50:32;92604.75;;;31.59
69420;BMP280;71621;52.030;113.516;2023-08-01T08:53:36;92613.03;;;31.59
69420;BMP280;71621;52.030;113.516;2023-08-01T08:56:41;92610.75;;;31.53
69420;BMP280;71621;52.030;113.516;2023-08-01T08:59:45;92605.72;;;31.47
69420;BMP280;71621;52.030;113.516;2023-08-01T09:02:49;92606.38;;;31.48
69420;BMP280;71621;52.030;113.516;2023-08-01T09:06:03;92607.69;;;31.57
69420;BMP280;71621;52.030;113.516;2023-08-01T09:09:11;92608.00;;;31.62
69420;BMP280;71621;52.030;113.516;2023-08-01T09:12:15;92610.94;;;31.60
69420;BMP280;71621;52.030;113.516;2023-08-01T09:15:19;92616.59;;;31.58
69420;BMP280;71621;52.030;113.516;2023-08-01T09:18:23;92617.09;;;31.43
69420;BMP280;71621;52.030;113.516;2023-08-01T09:21:26;92612.72;;;31.29
69420;BMP280;71621;52.030;113.516;2023-08-01T09:24:30;92603.59;;;31.22
69420;BMP280;71621;52.030;113.516;2023-08-01T09:27:33;92592.06;;;31.11
69420;BMP280;71621;52.030;113.516;2023-08-01T09:30:45;92601.19;;;31.26
69420;BMP280;71621;52.030;113.516;2023-08-01T09:33:49;92602.47;;;31.27
69420;BMP280;71621;52.030;113.516;2023-08-01T09:37:00;92603.28;;;31.35
69420;BMP280;71621;52.030;113.516;2023-08-01T09:40:03;92599.22;;;31.42
69420;BMP280;71621;52.030;113.516;2023-08-01T09:43:07;92600.53;;;31.43
69420;BMP280;71621;52.030;113.516;2023-08-01T09:46:12;92604.75;;;31.42
69420;BMP280;71621;52.030;113.516;2023-08-01T09:49:16;92604.94;;;31.49
69420;BMP280;71621;52.030;113.516;2023-08-01T09:52:29;92609.97;;;31.46
69420;BMP280;71621;52.030;113.516;2023-08-01T09:55:33;92594.69;;;31.30
69420;BMP280;71621;52.030;113.516;2023-08-01T09:58:37;92607.00;;;31.22
69420;BMP280;71621;52.030;113.516;2023-08-01T10:01:44;92610.63;;;31.30
69420;BMP280;71621;52.030;113.516;2023-08-01T10:04:48;92606.06;;;31.26
69420;BMP280;71621;52.030;113.516;2023-08-01T10:07:53;92603.28;;;31.17
69420;BMP280;71621;52.030;113.516;2023-08-01T10:10:58;92611.56;;;31.09
69420;BMP280;71621;52.030;113.516;2023-08-01T10:14:03;92607.63;;;30.97
69420;BMP280;71621;52.030;113.516;2023-08-01T10:17:06;92611.50;;;30.83
69420;BMP280;71621;52.030;113.516;2023-08-01T10:20:12;92612.63;;;30.77
69420;BMP280;71621;52.030;113.516;2023-08-01T10:23:17;92613.88;;;30.61
69420;BMP280;71621;52.030;113.516;2023-08-01T10:26:21;92608.47;;;30.51
69420;BMP280;71621;52.030;113.516;2023-08-01T10:29:36;92606.69;;;30.47
69420;BMP280;71621;52.030;113.516;2023-08-01T10:32:40;92601.03;;;30.49
69420;BMP280;71621;52.030;113.516;2023-08-01T10:35:44;92608.31;;;30.53
69420;BMP280;71621;52.030;113.516;2023-08-01T10:38:57;92605.56;;;30.53
69420;BMP280;71621;52.030;113.516;2023-08-01T10:42:02;92608.31;;;30.44
69420;BMP280;71621;52.030;113.516;2023-08-01T10:45:18;92607.00;;;30.43
69420;BMP280;71621;52.030;113.516;2023-08-01T10:48:23;92611.06;;;30.44
69420;BMP280;71621;52.030;113.516;2023-08-01T10:51:34;92609.94;;;30.50
69420;BMP280;71621;52.030;113.516;2023-08-01T10:54:39;92608.59;;;30.40
69420;BMP280;71621;52.030;113.516;2023-08-01T10:57:48;92614.44;;;30.36
69420;BMP280;71621;52.030;113.516;2023-08-01T11:00:59;92617.50;;;30.32
69420;BMP280;71621;52.030;113.516;2023-08-01T11:04:13;92613.09;;;30.26
69420;BMP280;71621;52.030;113.516;2023-08-01T11:07:17;92615.09;;;30.09
69420;BMP280;71621;52.030;113.516;2023-08-01T11:10:21;92610.78;;;29.93
69420;BMP280;71621;52.030;113.516;2023-08-01T11:13:24;92611.03;;;29.80
69420;BMP280;71621;52.030;113.516;2023-08-01T11:16:28;92624.53;;;29.65
69420;BMP280;71621;52.030;113.516;2023-08-01T11:19:32;92616.78;;;29.48
69420;BMP280;71621;52.030;113.516;2023-08-01T11:22:37;92621.44;;;29.41
69420;BMP280;71621;52.030;113.516;2023-08-01T11:25:42;92617.94;;;29.32
69420;BMP280;71621;52.030;113.516;2023-08-01T11:28:46;92617.09;;;29.25
69420;BMP280;71621;52.030;113.516;2023-08-01T11:31:57;92622.63;;;29.14
69420;BMP280;71621;52.030;113.516;2023-08-01T11:35:01;92625.63;;;29.02
69420;BMP280;71621;52.030;113.516;2023-08-01T11:38:05;92624.06;;;28.94
69420;BMP280;71621;52.030;113.516;2023-08-01T11:41:09;92631.22;;;28.80
69420;BMP280;71621;52.030;113.516;2023-08-01T11:44:13;92634.16;;;28.68
69420;BMP280;71621;52.030;113.516;2023-08-01T11:47:18;92646.47;;;28.58
69420;BMP280;71621;52.030;113.516;2023-08-01T11:50:23;92653.13;;;28.61
69420;BMP280;71621;52.030;113.516;2023-08-01T11:53:28;92647.13;;;28.59
69420;BMP280;71621;52.030;113.516;2023-08-01T11:56:32;92637.69;;;28.56
69420;BMP280;71621;52.030;113.516;2023-08-01T11:59:49;92635.09;;;28.54
69420;BMP280;71621;52.030;113.516;2023-08-01T12:03:03;92639.06;;;28.46
69420;BMP280;71621;52.030;113.516;2023-08-01T12:06:08;92638.19;;;28.28
69420;BMP280;71621;52.030;113.516;2023-08-01T12:09:12;92637.94;;;28.11
69420;BMP280;71621;52.030;113.516;2023-08-01T12:12:16;92642.41;;;27.95
69420;BMP280;71621;52.030;113.516;2023-08-01T12:15:20;92637.41;;;27.87
69420;BMP280;71621;52.030;113.516;2023-08-01T12:18:29;92646.03;;;27.81
69420;BMP280;71621;52.030;113.516;2023-08-01T12:21:36;92648.16;;;27.70
69420;BMP280;71621;52.030;113.516;2023-08-01T12:24:40;92645.16;;;27.64
69420;BMP280;71621;52.030;113.516;2023-08-01T12:27:44;92649.69;;;27.57
69420;BMP280;71621;52.030;113.516;2023-08-01T12:30:48;92656.22;;;27.51
69420;BMP280;71621;52.030;113.516;2023-08-01T12:33:52;92654.53;;;27.45
69420;BMP280;71621;52.030;113.516;2023-08-01T12:36:56;92680.13;;;27.42
69420;BMP280;71621;52.030;113.516;2023-08-01T12:39:59;92674.22;;;27.37
69420;BMP280;71621;52.030;113.516;2023-08-01T12:43:03;92683.91;;;27.36
69420;BMP280;71621;52.030;113.516;2023-08-01T12:46:08;92680.66;;;27.34
69420;BMP280;71621;52.030;113.516;2023-08-01T12:49:12;92676.47;;;27.35
69420;BMP280;71621;52.030;113.516;2023-08-01T12:52:22;92677.13;;;27.35
69420;BMP280;71621;52.030;113.516;2023-08-01T12:55:27;92681.13;;;27.26
69420;BMP280;71621;52.030;113.516;2023-08-01T12:58:31;92677.72;;;27.15
69420;BMP280;71621;52.030;113.516;2023-08-01T13:01:35;92691.44;;;27.15
69420;BMP280;71621;52.030;113.516;2023-08-01T13:04:38;92683.16;;;27.04
69420;BMP280;71621;52.030;113.516;2023-08-01T13:07:42;92682.47;;;26.93
69420;BMP280;71621;52.030;113.516;2023-08-01T13:10:46;92671.00;;;26.78
69420;BMP280;71621;52.030;113.516;2023-08-01T13:13:50;92667.16;;;26.62
69420;BMP280;71621;52.030;113.516;2023-08-01T13:16:53;92667.03;;;26.64
69420;BMP280;71621;52.030;113.516;2023-08-01T13:19:57;92661.44;;;26.66
69420;BMP280;71621;52.030;113.516;2023-08-01T13:23:02;92662.75;;;26.67
69420;BMP280;71621;52.030;113.516;2023-08-01T13:26:06;92668.28;;;26.54
69420;BMP280;71621;52.030;113.516;2023-08-01T13:29:09;92663.72;;;26.38
69420;BMP280;71621;52.030;113.516;2023-08-01T13:32:13;92650.63;;;26.28
69420;BMP280;71621;52.030;113.516;2023-08-01T13:35:17;92646.69;;;26.25
69420;BMP280;71621;52.030;113.516;2023-08-01T13:38:20;92653.50;;;26.26
69420;BMP280;71621;52.030;113.516;2023-08-01T13:41:24;92646.88;;;26.10
69420;BMP280;71621;52.030;113.516;2023-08-01T13:44:27;92643.59;;;25.95
69420;BMP280;71621;52.030;113.516;2023-08-01T13:47:31;92651.19;;;25.82
69420;BMP280;71621;52.030;113.516;2023-08-01T13:50:35;92638.75;;;25.72
69420;BMP280;71621;52.030;113.516;2023-08-01T13:53:39;92644.47;;;25.68
69420;BMP280;71621;52.030;113.516;2023-08-01T13:56:45;92641.94;;;25.64
69420;BMP280;71621;52.030;113.516;2023-08-01T13:59:49;92642.72;;;25.50
69420;BMP280;71621;52.030;113.516;2023-08-01T14:03:12;92642.38;;;25.44
69420;BMP280;71621;52.030;113.516;2023-08-01T14:06:15;92635.06;;;25.40
69420;BMP280;71621;52.030;113.516;2023-08-01T14:09:19;92640.84;;;25.34
69420;BMP280;71621;52.030;113.516;2023-08-01T14:12:23;92646.22;;;25.23
69420;BMP280;71621;52.030;113.516;2023-08-01T14:15:27;92641.63;;;25.07
69420;BMP280;71621;52.030;113.516;2023-08-01T14:18:31;92644.25;;;24.97
69420;BMP280;71621;52.030;113.516;2023-08-01T14:21:34;92641.72;;;25.05
69420;BMP280;71621;52.030;113.516;2023-08-01T14:24:38;92648.81;;;25.00
69420;BMP280;71621;52.030;113.516;2023-08-01T14:27:42;92642.66;;;24.87
69420;BMP280;71621;52.030;113.516;2023-08-01T14:30:45;92647.91;;;24.78
69420;BMP280;71621;52.030;113.516;2023-08-01T14:33:49;92649.97;;;24.65
69420;BMP280;71621;52.030;113.516;2023-08-01T14:36:52;92642.38;;;24.53
69420;BMP280;71621;52.030;113.516;2023-08-01T14:39:56;92655.13;;;24.44
69420;BMP280;71621;52.030;113.516;2023-08-01T14:42:59;92661.25;;;24.44
69420;BMP280;71621;52.030;113.516;2023-08-01T14:46:03;92650.44;;;24.42
69420;BMP280;71621;52.030;113.516;2023-08-01T14:49:07;92653.47;;;24.36
69420;BMP280;71621;52.030;113.516;2023-08-01T14:52:11;92653.69;;;24.45
69420;BMP280;71621;52.030;113.516;2023-08-01T14:55:14;92646.34;;;24.41
69420;BMP280;71621;52.030;113.516;2023-08-01T14:58:18;92650.59;;;24.38
69420;BMP280;71621;52.030;113.516;2023-08-01T15:01:21;92654.78;;;24.37
69420;BMP280;71621;52.030;113.516;2023-08-01T15:04:25;92654.72;;;24.25
69420;BMP280;71621;52.030;113.516;2023-08-01T15:07:29;92658.59;;;24.15
69420;BMP280;71621;52.030;113.516;2023-08-01T15:10:36;92654.94;;;24.06
69420;BMP280;71621;52.030;113.516;2023-08-01T15:13:40;92648.75;;;23.93
69420;BMP280;71621;52.030;113.516;2023-08-01T15:16:43;92640.47;;;23.95
69420;BMP280;71621;52.030;113.516;2023-08-01T15:19:47;92643.22;;;23.95
69420;BMP280;71621;52.030;113.516;2023-08-01T15:22:51;92646.81;;;23.91
69420;BMP280;71621;52.030;113.516;2023-08-01T15:25:56;92642.47;;;23.82
69420;BMP280;71621;52.030;113.516;2023-08-01T15:29:00;92638.81;;;23.73
69420;BMP280;71621;52.030;113.516;2023-08-01T15:32:04;92642.97;;;23.72
69420;BMP280;71621;52.030;113.516;2023-08-01T15:35:08;92643.91;;;23.66
69420;BMP280;71621;52.030;113.516;2023-08-01T15:38:12;92648.91;;;23.61
69420;BMP280;71621;52.030;113.516;2023-08-01T15:41:16;92636.94;;;23.54
69420;BMP280;71621;52.030;113.516;2023-08-01T15:44:19;92642.59;;;23.50
69420;BMP280;71621;52.030;113.516;2023-08-01T15:47:23;92635.31;;;23.45
69420;BMP280;71621;52.030;113.516;2023-08-01T15:50:26;92631.50;;;23.40
69420;BMP280;71621;52.030;113.516;2023-08-01T15:53:31;92633.63;;;23.37
69420;BMP280;71621;52.030;113.516;2023-08-01T15:56:34;92630.53;;;23.31
69420;BMP280;71621;52.030;113.516;2023-08-01T15:59:38;92632.34;;;23.36
69420;BMP280;71621;52.030;113.516;2023-08-01T16:02:42;92628.47;;;23.31
69420;BMP280;71621;52.030;113.516;2023-08-01T16:05:46;92632.78;;;23.26
69420;BMP280;71621;52.030;113.516;2023-08-01T16:08:49;92637.00;;;23.23
69420;BMP280;71621;52.030;113.516;2023-08-01T16:11:53;92631.19;;;23.16
69420;BMP280;71621;52.030;113.516;2023-08-01T16:14:57;92628.84;;;23.08
69420;BMP280;71621;52.030;113.516;2023-08-01T16:18:00;92627.13;;;23.01
69420;BMP280;71621;52.030;113.516;2023-08-01T16:21:04;92635.22;;;23.03
69420;BMP280;71621;52.030;113.516;2023-08-01T16:24:08;92636.69;;;23.00
69420;BMP280;71621;52.030;113.516;2023-08-01T16:27:12;92631.81;;;22.88
69420;BMP280;71621;52.030;113.516;2023-08-01T16:30:15;92627.28;;;22.97
69420;BMP280;71621;52.030;113.516;2023-08-01T16:33:19;92618.75;;;23.05
69420;BMP280;71621;52.030;113.516;2023-08-01T16:36:23;92624.22;;;23.05
69420;BMP280;71621;52.030;113.516;2023-08-01T16:39:26;92614.94;;;23.14
69420;BMP280;71621;52.030;113.516;2023-08-01T16:42:30;92612.59;;;23.21
69420;BMP280;71621;52.030;113.516;2023-08-01T16:45:33;92608.53;;;23.20
69420;BMP280;71621;52.030;113.516;2023-08-01T16:48:37;92605.44;;;23.13
69420;BMP280;71621;52.030;113.516;2023-08-01T16:51:41;92611.25;;;23.05
69420;BMP280;71621;52.030;113.516;2023-08-01T16:54:44;92613.00;;;22.96
69420;BMP280;71621;52.030;113.516;2023-08-01T16:57:48;92608.84;;;22.83
69420;BMP280;71621;52.030;113.516;2023-08-01T17:00:51;92610.03;;;22.71
69420;BMP280;71621;52.030;113.516;2023-08-01T17:03:55;92601.34;;;22.52
69420;BMP280;71621;52.030;113.516;2023-08-01T17:06:59;92620.84;;;22.42
69420;BMP280;71621;52.030;113.516;2023-08-01T17:10:05;92626.69;;;22.31
69420;BMP280;71621;52.030;113.516;2023-08-01T17:13:10;92633.41;;;22.18